LiveATC.Net - Listen to live air traffic control over the Internet!


ICAO: KRIV  IATA: RIV   Airport: March Air Reserve Base
City: Riverside   State/Province: California
Country: United States   Continent: North America
KRIV METAR Weather: KRIV 060958Z AUTO 00000KT 10SM CLR 17/13 A2995 RMK AO2 SLP129 T01710134
KRIV Flight Activity (FlightAware)
KRIV Airport Info   (iFlightPlanner)
KRIV VFR Sectional Chart   (iFlightPlanner) 
KRIV IFR Low Altitude Chart   (iFlightPlanner) 
KRIV IFR High Altitude Chart   (iFlightPlanner) 

KRAL/KRIV Gnd/Twr/App
Feed Status: UP   Listeners: 0
Listen in your browser - HTML5 player (in browser, HTML5)
Click here to listen with your own player (launches your MP3 player)
Archive Access: KRAL/KRIV Gnd/Twr/App
FacilityFrequency
March Approach/Departure119.250
March Approach/Departure133.500
Riverside Ground121.700
Riverside Tower121.000
Riverside UNICOM122.950

NOTICE

Unauthorized use prohibited. See LiveATC.net Terms of Service


Airport/ARTCC Code
Frequency Search
(e.g., 124.400, 128.75)
Site-wide search
 


Browse Feeds
Top 50 Feeds
HF Oceanic Feeds
Coverage Map
Bad Weather Areas

LiveATC FAQ
Offer LiveATC feed
Contact LiveATC.net
Press Inquiries

LiveATC on iPhone
LiveATC on Android

LiveATC Mobile
(Mobile browser)

ATC Audio Archives
Interesting Recordings

LiveATC Forums


Home Page
About LiveATC.net


Terms of Use
Privacy Policy

AIRMETs/SIGMETs

FAA Airport Status
NAS Status
Arrival Demand


Server Software By:
Icecast.org
Liquidsoap